Time;durP1;ratioP1;P1;durP2;ratioP2;P2;SDS_P1;SDS_P2;PMS_P1;PMS_P2;Temp;Humidity;BMP_temperature;BMP_pressure;BME280_temperature;BME280_humidity;BME280_pressure;Samples;Min_cycle;Max_cycle;Signal;HPM_P1;HPM_P2
2022/09/08 00:01:51;;;;;;;5.70;1.05;;;19.60;99.90;;;;;;5068302;28;20039;-81
2022/09/08 00:04:17;;;;;;;5.22;1.17;;;19.60;99.90;;;;;;5073792;28;20024;-81
2022/09/08 00:06:46;;;;;;;3.00;0.80;;;19.60;99.90;;;;;;5074551;28;20032;-81
2022/09/08 00:09:12;;;;;;;3.35;0.90;;;19.60;99.90;;;;;;5049833;28;20409;-78
2022/09/08 00:11:39;;;;;;;1.20;0.70;;;19.50;99.90;;;;;;5055338;28;20238;-81
2022/09/08 00:14:07;;;;;;;2.45;1.05;;;19.60;99.90;;;;;;5054574;28;20029;-81
2022/09/08 00:16:33;;;;;;;2.58;1.20;;;19.60;99.90;;;;;;5072833;28;20043;-82
2022/09/08 00:18:59;;;;;;;2.08;0.80;;;19.50;99.90;;;;;;5073081;28;20032;-82
2022/09/08 00:21:28;;;;;;;2.30;0.93;;;19.40;99.90;;;;;;5073723;28;20037;-82
2022/09/08 00:23:54;;;;;;;1.73;0.70;;;19.30;99.90;;;;;;5055814;28;20055;-81
2022/09/08 00:26:21;;;;;;;7.85;1.35;;;19.20;99.90;;;;;;5073516;28;20052;-80
2022/09/08 00:28:48;;;;;;;2.47;1.08;;;19.00;99.90;;;;;;5072318;28;20090;-80
2022/09/08 00:31:14;;;;;;;2.97;0.80;;;18.80;99.90;;;;;;5073466;28;20032;-80
2022/09/08 00:33:42;;;;;;;1.27;0.80;;;18.70;99.90;;;;;;5056957;28;20040;-79
2022/09/08 00:36:15;;;;;;;1.83;1.23;;;18.60;99.90;;;;;;5054435;28;20033;-80
2022/09/08 00:38:43;;;;;;;2.05;1.25;;;18.40;99.90;;;;;;5053449;28;20033;-79
2022/09/08 00:41:11;;;;;;;1.90;1.10;;;18.20;99.90;;;;;;5054109;28;20037;-80
2022/09/08 00:43:39;;;;;;;3.40;1.38;;;18.10;99.90;;;;;;5054489;28;20474;-80
2022/09/08 00:46:08;;;;;;;3.33;1.55;;;17.90;99.90;;;;;;5053609;28;20151;-81
2022/09/08 00:48:49;;;;;;;6.05;1.40;;;17.80;99.90;;;;;;5053124;28;20037;-79
2022/09/08 00:51:17;;;;;;;4.70;1.35;;;17.60;99.90;;;;;;5053866;28;20040;-80
2022/09/08 00:53:45;;;;;;;2.33;1.80;;;17.50;99.90;;;;;;5054476;28;20029;-79
2022/09/08 00:56:11;;;;;;;7.82;2.20;;;17.50;99.90;;;;;;5053504;28;20040;-79
2022/09/08 00:58:39;;;;;;;3.15;2.15;;;17.40;99.90;;;;;;5052514;28;20033;-80
2022/09/08 01:01:06;;;;;;;5.57;3.10;;;17.30;99.90;;;;;;5053371;28;20033;-80
2022/09/08 01:03:33;;;;;;;3.22;1.80;;;17.20;99.90;;;;;;5053183;28;20032;-79
2022/09/08 01:06:12;;;;;;;5.03;2.35;;;17.10;99.90;;;;;;5053713;28;20033;-79
2022/09/08 01:14:51;;;;;;;5.53;2.15;;;16.90;99.90;;;;;;5073294;28;19916;-79
2022/09/08 01:17:24;;;;;;;5.50;2.95;;;16.90;99.90;;;;;;5072579;28;20378;-78
2022/09/08 01:19:52;;;;;;;6.90;2.40;;;16.90;99.90;;;;;;5071580;28;20036;-78
2022/09/08 01:22:38;;;;;;;5.22;2.45;;;16.80;99.90;;;;;;5072700;28;20032;-79
2022/09/08 01:25:16;;;;;;;5.28;2.55;;;16.70;99.90;;;;;;5072645;28;20048;-78
2022/09/08 01:27:48;;;;;;;5.03;2.28;;;16.60;99.90;;;;;;5072547;28;20056;-78
2022/09/08 01:30:14;;;;;;;3.70;2.45;;;16.60;99.90;;;;;;5071544;28;20032;-78
2022/09/08 01:32:43;;;;;;;4.60;2.25;;;16.60;99.90;;;;;;5072980;28;20449;-78
2022/09/08 01:35:09;;;;;;;4.85;2.95;;;16.50;99.90;;;;;;5072017;28;20041;-77
2022/09/08 01:37:36;;;;;;;3.67;2.38;;;16.60;99.90;;;;;;5054887;28;20033;-77
2022/09/08 01:40:04;;;;;;;3.42;2.38;;;16.60;99.90;;;;;;5070796;28;20469;-78
2022/09/08 01:42:30;;;;;;;4.88;2.67;;;16.50;99.90;;;;;;5072749;28;20036;-78
2022/09/08 01:44:56;;;;;;;4.90;2.85;;;16.50;99.90;;;;;;5058008;28;20402;-80
2022/09/08 01:47:22;;;;;;;3.78;2.70;;;16.50;99.90;;;;;;5060459;28;20049;-80
2022/09/08 01:49:49;;;;;;;3.33;2.45;;;16.50;99.90;;;;;;5070814;28;20052;-79
2022/09/08 01:52:15;;;;;;;3.97;2.30;;;16.50;99.90;;;;;;5046731;28;20029;-80
2022/09/08 01:54:41;;;;;;;6.25;3.20;;;16.40;99.90;;;;;;5067583;28;20032;-79
2022/09/08 01:57:08;;;;;;;9.05;3.00;;;16.50;99.90;;;;;;5072300;28;20033;-79
2022/09/08 01:59:34;;;;;;;4.03;2.30;;;16.50;99.90;;;;;;5071403;28;20032;-80
2022/09/08 02:02:01;;;;;;;2.60;2.30;;;16.40;99.90;;;;;;5074996;28;20028;-79
2022/09/08 02:04:27;;;;;;;3.95;2.78;;;16.40;99.90;;;;;;5074279;28;20051;-79
2022/09/08 02:06:53;;;;;;;4.65;1.98;;;16.40;99.90;;;;;;5072556;28;20047;-79
2022/09/08 02:09:20;;;;;;;4.25;2.45;;;16.40;99.90;;;;;;5039501;28;20036;-79
2022/09/08 02:11:48;;;;;;;4.30;2.65;;;16.40;99.90;;;;;;5056474;28;20033;-80
2022/09/08 02:14:14;;;;;;;3.25;1.85;;;16.40;99.90;;;;;;5052132;28;20032;-82
2022/09/08 02:16:42;;;;;;;4.45;2.67;;;16.40;99.90;;;;;;5052711;28;20039;-82
2022/09/08 02:19:08;;;;;;;3.70;2.55;;;16.50;99.90;;;;;;5060016;28;20032;-82
2022/09/08 02:21:34;;;;;;;3.92;2.58;;;16.60;99.90;;;;;;5071963;28;20033;-82
2022/09/08 02:24:00;;;;;;;4.93;2.90;;;16.60;99.90;;;;;;5054263;28;20039;-81
2022/09/08 02:26:28;;;;;;;6.68;3.00;;;16.70;99.90;;;;;;5071452;28;20055;-80
2022/09/08 02:28:55;;;;;;;4.22;2.63;;;16.70;99.90;;;;;;5070703;28;20454;-81
2022/09/08 02:31:22;;;;;;;4.20;2.70;;;16.80;99.90;;;;;;5071453;28;20037;-82
2022/09/08 02:33:49;;;;;;;5.93;2.60;;;16.80;99.90;;;;;;5053560;28;20048;-82
2022/09/08 02:36:15;;;;;;;4.03;2.88;;;16.80;99.90;;;;;;5070732;28;20047;-81
2022/09/08 02:38:42;;;;;;;6.30;2.67;;;16.90;99.90;;;;;;5050959;28;20029;-81
2022/09/08 02:41:08;;;;;;;4.47;2.67;;;16.90;99.90;;;;;;5052323;28;20029;-86
2022/09/08 02:43:35;;;;;;;4.47;3.05;;;16.90;99.90;;;;;;5052437;28;20059;-82
2022/09/08 02:46:06;;;;;;;3.25;2.42;;;16.90;99.90;;;;;;5066911;28;20028;-81
2022/09/08 02:48:32;;;;;;;6.78;3.05;;;16.90;99.90;;;;;;5069765;28;20059;-83
2022/09/08 02:51:00;;;;;;;8.95;3.58;;;17.00;99.90;;;;;;5065225;28;20044;-81
2022/09/08 02:53:28;;;;;;;7.25;3.75;;;17.00;99.90;;;;;;5051652;28;20355;-81
2022/09/08 02:55:54;;;;;;;7.03;3.22;;;17.00;99.90;;;;;;5052220;28;20029;-80
2022/09/08 02:58:20;;;;;;;5.97;3.08;;;16.80;99.90;;;;;;5032141;28;20057;-82
2022/09/08 03:00:46;;;;;;;5.00;3.38;;;16.70;99.90;;;;;;5052186;28;20029;-83
2022/09/08 03:03:12;;;;;;;7.00;3.95;;;16.60;99.90;;;;;;5051615;28;20036;-83
2022/09/08 03:05:39;;;;;;;6.43;4.03;;;16.60;99.90;;;;;;5070229;28;20040;-83
2022/09/08 03:08:05;;;;;;;5.38;3.83;;;16.50;99.90;;;;;;5069827;28;20365;-82
2022/09/08 03:10:33;;;;;;;6.97;3.90;;;16.50;99.90;;;;;;5052946;28;20032;-82
2022/09/08 03:12:59;;;;;;;9.02;4.65;;;16.50;99.90;;;;;;5052983;28;20405;-81
2022/09/08 03:15:27;;;;;;;8.95;4.97;;;16.60;99.90;;;;;;5067155;28;20029;-82
2022/09/08 03:17:53;;;;;;;8.55;4.60;;;16.60;99.90;;;;;;5060637;28;20044;-83
2022/09/08 03:20:20;;;;;;;9.32;5.90;;;16.60;99.90;;;;;;5052701;28;20036;-83
2022/09/08 03:22:46;;;;;;;10.73;6.68;;;16.80;99.90;;;;;;5071309;28;20029;-81
2022/09/08 03:25:13;;;;;;;13.00;7.75;;;16.90;99.90;;;;;;5068288;28;20040;-82
2022/09/08 03:27:39;;;;;;;12.07;7.03;;;16.90;99.90;;;;;;5055526;28;20049;-84
2022/09/08 03:30:09;;;;;;;14.43;6.95;;;16.90;99.90;;;;;;5055379;28;20037;-81
2022/09/08 03:32:37;;;;;;;10.77;6.70;;;16.70;99.90;;;;;;5057689;28;20036;-81
2022/09/08 03:35:07;;;;;;;11.38;6.88;;;16.70;99.90;;;;;;5075514;28;20048;-81
2022/09/08 03:37:35;;;;;;;14.02;7.80;;;16.70;99.90;;;;;;5074406;28;20405;-81
2022/09/08 03:40:03;;;;;;;11.70;7.68;;;16.70;99.90;;;;;;5065500;28;20033;-80
2022/09/08 03:42:35;;;;;;;18.17;9.25;;;16.70;99.90;;;;;;5063977;28;20370;-80
2022/09/08 03:45:07;;;;;;;19.45;10.20;;;16.80;99.90;;;;;;5055659;28;20039;-79
2022/09/08 03:47:34;;;;;;;11.88;6.68;;;16.80;99.90;;;;;;5068747;28;20485;-80
2022/09/08 03:50:00;;;;;;;13.52;7.72;;;16.70;99.90;;;;;;5039599;28;20478;-78
2022/09/08 03:52:27;;;;;;;12.57;7.63;;;16.60;99.90;;;;;;5038001;28;20029;-79
2022/09/08 03:54:53;;;;;;;12.23;7.75;;;16.60;99.90;;;;;;5066029;28;20040;-77
2022/09/08 03:57:24;;;;;;;13.60;8.30;;;16.60;99.90;;;;;;5040137;28;20072;-78
2022/09/08 03:59:52;;;;;;;14.70;7.88;;;16.60;99.90;;;;;;5061341;28;20033;-79
2022/09/08 04:02:19;;;;;;;15.35;8.10;;;16.60;99.90;;;;;;5072069;28;20044;-77
2022/09/08 04:04:50;;;;;;;12.80;7.72;;;16.60;99.90;;;;;;5074614;28;20037;-76
2022/09/08 04:07:18;;;;;;;15.43;8.68;;;16.50;99.90;;;;;;5073989;28;20039;-77
2022/09/08 04:09:45;;;;;;;15.38;8.38;;;16.50;99.90;;;;;;5072801;28;20029;-78
2022/09/08 04:12:11;;;;;;;16.92;9.13;;;16.50;99.90;;;;;;5071112;28;20040;-77
2022/09/08 04:14:39;;;;;;;13.48;7.78;;;16.50;99.90;;;;;;5071150;28;20337;-76
2022/09/08 04:17:05;;;;;;;16.05;7.95;;;16.50;99.90;;;;;;5074292;28;20366;-76
2022/09/08 04:19:32;;;;;;;15.63;8.60;;;16.40;99.90;;;;;;5045015;28;20036;-75
2022/09/08 04:21:58;;;;;;;12.32;8.43;;;16.40;99.90;;;;;;5063966;28;20040;-75
2022/09/08 04:24:25;;;;;;;15.85;8.85;;;16.40;99.90;;;;;;5071271;28;20040;-76
2022/09/08 04:26:52;;;;;;;17.67;9.25;;;16.40;99.90;;;;;;5053978;28;20379;-75
2022/09/08 04:29:18;;;;;;;15.85;8.82;;;16.50;99.90;;;;;;5052872;28;20595;-75
2022/09/08 04:31:46;;;;;;;12.45;8.27;;;16.60;99.90;;;;;;5036841;28;20041;-75
2022/09/08 04:34:15;;;;;;;15.13;8.75;;;16.70;99.90;;;;;;5054774;28;20462;-77
2022/09/08 04:36:43;;;;;;;19.23;9.18;;;16.70;99.90;;;;;;5068809;28;20381;-77
2022/09/08 04:39:10;;;;;;;21.88;10.60;;;16.70;99.90;;;;;;5072221;28;20032;-77
2022/09/08 04:41:38;;;;;;;19.35;10.63;;;16.60;99.90;;;;;;5073009;28;20079;-77
2022/09/08 04:44:05;;;;;;;21.15;11.68;;;16.70;99.90;;;;;;5073696;28;20469;-77
2022/09/08 04:46:32;;;;;;;19.55;11.63;;;16.60;99.90;;;;;;5073389;28;20028;-77
2022/09/08 04:48:59;;;;;;;22.65;12.48;;;16.50;99.90;;;;;;5072141;28;20393;-77
2022/09/08 04:51:27;;;;;;;25.38;14.10;;;16.60;99.90;;;;;;5073154;28;20381;-78
2022/09/08 04:53:55;;;;;;;26.48;14.48;;;16.50;99.90;;;;;;5054120;28;20037;-77
2022/09/08 04:56:22;;;;;;;25.27;14.15;;;16.50;99.90;;;;;;5060876;28;20036;-77
2022/09/08 04:58:49;;;;;;;24.80;14.82;;;16.50;99.90;;;;;;5071952;28;20052;-78
2022/09/08 05:01:23;;;;;;;19.80;14.23;;;16.50;99.90;;;;;;5073143;28;20032;-77
2022/09/08 05:03:51;;;;;;;26.08;13.57;;;16.50;99.90;;;;;;5073137;28;20040;-77
2022/09/08 05:06:18;;;;;;;25.98;14.60;;;16.40;99.90;;;;;;5058926;28;20033;-78
2022/09/08 05:08:46;;;;;;;20.80;13.02;;;16.40;99.90;;;;;;5058381;28;20041;-77
2022/09/08 05:11:13;;;;;;;19.85;12.70;;;16.30;99.90;;;;;;5073019;28;20055;-77
2022/09/08 05:13:40;;;;;;;21.13;13.57;;;16.30;99.90;;;;;;5072573;28;20385;-78
2022/09/08 05:16:09;;;;;;;26.10;14.00;;;16.40;99.90;;;;;;5073034;28;20033;-77
2022/09/08 05:18:36;;;;;;;30.25;15.63;;;16.40;99.90;;;;;;5071166;28;20040;-77
2022/09/08 05:21:03;;;;;;;28.10;14.35;;;16.50;99.90;;;;;;5053787;28;20029;-77
2022/09/08 05:23:29;;;;;;;28.90;14.90;;;16.50;99.90;;;;;;5053021;28;20029;-78
2022/09/08 05:25:58;;;;;;;29.45;16.35;;;16.60;99.90;;;;;;5053442;28;20048;-77
2022/09/08 05:28:26;;;;;;;27.35;16.23;;;16.60;99.90;;;;;;5051332;28;20048;-76
2022/09/08 05:30:53;;;;;;;28.83;16.25;;;16.60;99.90;;;;;;5053465;28;20045;-76
2022/09/08 05:33:20;;;;;;;25.17;16.17;;;16.60;99.90;;;;;;5053142;28;20044;-77
2022/09/08 05:35:47;;;;;;;28.65;17.02;;;16.50;99.90;;;;;;5065860;28;20041;-76
2022/09/08 05:38:14;;;;;;;25.95;16.27;;;16.50;99.90;;;;;;5071223;28;20036;-76
2022/09/08 05:40:40;;;;;;;26.77;15.25;;;16.60;99.90;;;;;;5054203;28;20466;-76
2022/09/08 05:43:06;;;;;;;27.48;14.73;;;16.60;99.90;;;;;;5053722;28;20029;-76
2022/09/08 05:45:33;;;;;;;23.98;12.80;;;16.60;99.90;;;;;;5052835;28;20029;-76
2022/09/08 05:47:59;;;;;;;21.27;12.20;;;16.60;99.90;;;;;;5067757;28;20350;-76
2022/09/08 05:50:25;;;;;;;18.73;10.45;;;16.60;99.90;;;;;;5068589;28;20056;-76
2022/09/08 05:52:51;;;;;;;19.45;10.50;;;16.50;99.90;;;;;;5053377;28;20029;-76
2022/09/08 05:55:18;;;;;;;13.57;6.88;;;16.50;99.90;;;;;;5052569;28;20037;-80
2022/09/08 05:57:44;;;;;;;14.93;7.90;;;16.50;99.90;;;;;;5067295;28;20040;-76
2022/09/08 06:00:11;;;;;;;15.25;8.02;;;16.50;99.90;;;;;;5072235;28;20131;-77
2022/09/08 06:02:37;;;;;;;14.32;8.35;;;16.60;99.90;;;;;;5072002;28;20036;-77
2022/09/08 06:05:04;;;;;;;12.90;7.30;;;16.50;99.90;;;;;;5072828;28;20033;-78
2022/09/08 06:07:31;;;;;;;9.70;6.50;;;16.50;99.90;;;;;;5056159;28;20059;-77
2022/09/08 06:09:57;;;;;;;12.85;7.43;;;16.50;99.90;;;;;;5054248;28;20036;-76
2022/09/08 06:12:24;;;;;;;11.10;6.47;;;16.60;99.90;;;;;;5053309;28;20132;-77
2022/09/08 06:14:50;;;;;;;23.08;6.47;;;16.60;99.90;;;;;;5060304;28;20024;-77
2022/09/08 06:17:16;;;;;;;8.18;5.53;;;16.60;99.90;;;;;;5071796;28;20024;-78
2022/09/08 06:19:42;;;;;;;8.20;5.20;;;16.60;99.90;;;;;;5051525;28;20391;-77
2022/09/08 06:22:08;;;;;;;7.55;5.00;;;16.60;99.90;;;;;;5048487;28;20385;-76
2022/09/08 06:24:34;;;;;;;6.15;3.63;;;16.50;99.90;;;;;;5053287;28;20025;-76
2022/09/08 06:27:04;;;;;;;6.90;2.55;;;16.50;99.90;;;;;;5061482;28;20401;-76
2022/09/08 06:29:53;;;;;;;4.05;1.90;;;16.30;99.90;;;;;;5085242;28;20044;-75
2022/09/08 06:32:23;;;;;;;2.60;1.50;;;16.10;99.90;;;;;;5071976;28;20043;-80
2022/09/08 06:35:05;;;;;;;4.18;1.83;;;16.00;99.90;;;;;;5084980;28;20040;-78
2022/09/08 06:37:40;;;;;;;3.00;1.73;;;16.00;99.90;;;;;;5070353;28;20119;-80
2022/09/08 06:40:30;;;;;;;4.65;1.70;;;16.00;99.90;;;;;;5072337;28;20048;-78
2022/09/08 06:43:05;;;;;;;2.50;1.13;;;15.90;99.90;;;;;;5075215;28;20033;-80
2022/09/08 06:45:36;;;;;;;3.17;1.70;;;15.80;99.90;;;;;;5074782;28;20409;-79
2022/09/08 06:48:11;;;;;;;8.88;3.33;;;15.90;99.90;;;;;;5070911;28;20032;-78
2022/09/08 06:51:01;;;;;;;4.35;1.80;;;15.80;99.90;;;;;;5078590;28;20039;-77
2022/09/08 06:53:38;;;;;;;2.92;1.58;;;15.90;99.90;;;;;;5061221;28;20436;-78
2022/09/08 06:56:31;;;;;;;6.30;1.80;;;15.80;99.90;;;;;;5080856;28;20028;-79
2022/09/08 06:59:06;;;;;;;6.45;1.77;;;15.90;99.90;;;;;;5088873;28;20481;-79
2022/09/08 07:02:04;;;;;;;2.40;1.50;;;16.00;99.90;;;;;;5090437;28;20028;-79
2022/09/08 07:04:56;;;;;;;2.75;1.85;;;16.00;99.90;;;;;;5069570;28;20056;-79
2022/09/08 07:07:52;;;;;;;2.75;1.50;;;16.00;99.90;;;;;;5060733;28;20078;-81
2022/09/08 07:10:24;;;;;;;3.65;1.33;;;16.10;99.90;;;;;;5092039;28;20040;-80
2022/09/08 07:13:02;;;;;;;3.63;1.42;;;16.20;99.90;;;;;;5077323;28;20044;-80
2022/09/08 07:15:50;;;;;;;2.40;1.60;;;16.20;99.90;;;;;;5089475;28;20047;-80
2022/09/08 07:18:39;;;;;;;2.72;1.50;;;16.30;99.90;;;;;;5090115;28;20039;-80
2022/09/08 07:21:44;;;;;;;5.10;2.05;;;16.30;99.90;;;;;;5091639;28;20032;-80
2022/09/08 07:24:15;;;;;;;2.75;1.70;;;16.40;99.90;;;;;;5078782;28;20052;-79
2022/09/08 07:26:59;;;;;;;3.97;1.35;;;16.50;99.90;;;;;;5063106;28;20052;-80
2022/09/08 07:29:34;;;;;;;5.28;1.83;;;16.40;99.90;;;;;;5049791;28;20386;-81
2022/09/08 07:32:02;;;;;;;4.57;1.83;;;16.50;99.90;;;;;;5034126;28;20524;-80
2022/09/08 07:34:31;;;;;;;4.63;1.60;;;16.50;99.90;;;;;;5051579;28;20029;-81
2022/09/08 07:37:38;;;;;;;2.13;1.25;;;16.50;99.90;;;;;;5052208;28;20033;-80
2022/09/08 08:21:01;;;;;;;1.88;1.02;;;17.50;99.90;;;;;;5357403;22;20028;-81
2022/09/08 08:23:43;;;;;;;;;;;17.50;99.90;;;;;;5054523;28;20041;-82
2022/09/08 08:26:14;;;;;;;5.03;1.52;;;17.70;99.90;;;;;;5036954;28;19908;-85
2022/09/08 08:28:45;;;;;;;4.18;1.20;;;18.10;99.90;;;;;;5034653;28;20033;-84
2022/09/08 08:31:30;;;;;;;1.67;1.00;;;18.10;99.90;;;;;;5052406;28;20025;-85
2022/09/08 08:34:23;;;;;;;1.63;0.95;;;18.00;99.90;;;;;;5028000;28;20045;-85
2022/09/08 08:36:50;;;;;;;2.10;1.15;;;17.60;99.90;;;;;;5054063;28;20033;-87
2022/09/08 08:39:23;;;;;;;2.05;1.05;;;17.20;99.90;;;;;;5052521;28;20044;-87
2022/09/08 08:42:04;;;;;;;2.67;1.20;;;17.10;99.90;;;;;;5054664;28;20036;-90
2022/09/08 08:44:55;;;;;;;2.92;1.05;;;17.00;99.90;;;;;;5054578;28;20385;-87
2022/09/08 08:47:39;;;;;;;2.40;0.80;;;17.10;99.90;;;;;;5036965;28;20044;-85
2022/09/08 08:50:48;;;;;;;2.78;1.00;;;17.50;99.90;;;;;;5048317;28;20478;-86
2022/09/08 08:53:29;;;;;;;5.70;1.52;;;17.80;99.90;;;;;;5034036;28;20119;-87
2022/09/08 08:56:19;;;;;;;2.90;1.52;;;17.80;99.90;;;;;;5036775;28;20036;-86
2022/09/08 08:59:15;;;;;;;2.67;1.42;;;18.10;99.90;;;;;;5036298;28;20049;-85
2022/09/08 09:02:00;;;;;;;1.75;0.80;;;18.50;99.90;;;;;;5045559;28;20055;-88
2022/09/08 09:04:53;;;;;;;2.03;0.93;;;18.70;99.90;;;;;;5033544;28;20036;-86
2022/09/08 09:07:28;;;;;;;1.60;1.00;;;19.10;99.90;;;;;;5020272;28;20037;-85
2022/09/08 09:10:22;;;;;;;1.40;0.50;;;19.40;99.90;;;;;;5036195;28;20053;-86
2022/09/08 09:12:59;;;;;;;1.55;0.40;;;19.70;99.90;;;;;;5015966;28;20391;-85
2022/09/08 09:15:44;;;;;;;1.95;0.90;;;19.40;99.90;;;;;;5019959;28;20475;-85
2022/09/08 09:33:44;;;;;;;3.35;0.88;;;17.30;99.90;;;;;;5049192;22;20059;-86
2022/09/08 09:36:40;;;;;;;2.35;0.90;;;17.20;99.90;;;;;;5075743;28;20032;-82
2022/09/08 09:39:21;;;;;;;1.50;1.05;;;17.20;99.90;;;;;;5067846;28;20029;-82
2022/09/08 09:42:14;;;;;;;1.52;0.88;;;17.40;99.90;;;;;;5072860;28;20036;-81
2022/09/08 09:45:17;;;;;;;1.33;0.70;;;17.50;99.90;;;;;;5072067;28;20032;-80
2022/09/08 09:59:05;;;;;;;2.60;0.68;;;19.30;99.90;;;;;;5412806;22;20060;-79
2022/09/08 10:02:09;;;;;;;1.00;0.75;;;19.30;99.90;;;;;;5052501;28;20052;-79
2022/09/08 10:05:07;;;;;;;1.05;0.80;;;19.40;99.90;;;;;;5051582;28;20037;-79
2022/09/08 10:08:25;;;;;;;2.47;0.88;;;19.30;99.90;;;;;;5007911;28;20064;-80
2022/09/08 10:11:09;;;;;;;1.13;0.70;;;19.30;99.90;;;;;;5018331;28;20060;-78
2022/09/08 10:14:17;;;;;;;1.60;0.77;;;19.50;99.90;;;;;;5033482;28;20037;-82
2022/09/08 10:16:47;;;;;;;1.10;0.52;;;19.80;99.90;;;;;;5017709;28;20045;-85
2022/09/08 10:19:25;;;;;;;1.15;0.30;;;20.00;99.90;;;;;;5052573;28;20044;-83
2022/09/08 10:22:00;;;;;;;1.58;0.50;;;20.20;99.90;;;;;;5051691;28;20032;-83
2022/09/08 10:24:36;;;;;;;0.52;0.40;;;20.40;99.90;;;;;;5051549;28;20036;-84
2022/09/08 10:27:21;;;;;;;1.92;0.85;;;20.60;99.90;;;;;;5034034;28;20067;-82
2022/09/08 10:30:16;;;;;;;1.08;0.40;;;20.30;99.90;;;;;;5051834;28;20474;-83
2022/09/08 10:32:49;;;;;;;3.25;0.43;;;20.00;99.90;;;;;;5032782;28;20041;-82
2022/09/08 10:35:22;;;;;;;0.80;0.40;;;19.90;99.90;;;;;;5034384;28;20040;-82
2022/09/08 10:38:13;;;;;;;0.40;0.30;;;20.00;99.90;;;;;;5051596;28;20185;-82
2022/09/08 10:40:54;;;;;;;0.50;0.30;;;19.90;99.90;;;;;;5030880;28;20048;-82
2022/09/08 10:44:03;;;;;;;0.45;0.28;;;20.00;99.90;;;;;;5033339;28;20370;-82
2022/09/08 10:47:04;;;;;;;1.75;0.40;;;20.10;99.30;;;;;;5018287;28;20044;-81
2022/09/08 10:50:00;;;;;;;0.93;0.28;;;20.30;98.00;;;;;;5017445;28;20044;-81
2022/09/08 10:52:41;;;;;;;3.22;0.40;;;20.20;98.70;;;;;;5051833;28;20382;-84
2022/09/08 10:55:10;;;;;;;1.98;0.32;;;19.90;98.50;;;;;;5033900;28;20053;-84
2022/09/08 10:58:01;;;;;;;1.95;0.32;;;20.20;98.30;;;;;;5033628;28;20033;-80
2022/09/08 11:00:39;;;;;;;1.67;0.40;;;20.30;97.30;;;;;;5030172;28;20049;-80
2022/09/08 11:03:27;;;;;;;0.52;0.30;;;20.30;98.30;;;;;;5029691;28;20037;-80
2022/09/08 11:06:07;;;;;;;0.95;0.40;;;20.70;96.80;;;;;;5029944;28;20064;-82
2022/09/08 11:09:05;;;;;;;0.70;0.30;;;21.00;97.00;;;;;;5032635;28;20038;-82
2022/09/08 11:12:06;;;;;;;0.95;0.25;;;21.10;97.50;;;;;;5025310;28;20049;-81
2022/09/08 11:15:04;;;;;;;1.65;0.50;;;21.10;96.70;;;;;;5028960;28;20033;-82
2022/09/08 11:17:43;;;;;;;1.02;0.40;;;21.30;95.50;;;;;;5032531;28;20467;-83
2022/09/08 11:20:43;;;;;;;1.38;0.65;;;21.70;95.50;;;;;;5031785;28;20049;-83
2022/09/08 11:23:44;;;;;;;2.30;0.40;;;21.70;93.50;;;;;;5031594;28;20379;-83
2022/09/08 11:26:42;;;;;;;0.70;0.38;;;21.60;94.70;;;;;;5030479;28;20037;-83
2022/09/08 11:29:14;;;;;;;0.65;0.43;;;21.50;95.50;;;;;;5031799;28;20470;-83
2022/09/08 11:31:46;;;;;;;0.90;0.50;;;21.90;94.20;;;;;;5030996;28;20041;-83
2022/09/08 11:34:12;;;;;;;0.77;0.47;;;22.00;94.20;;;;;;5031105;28;20037;-84
2022/09/08 11:36:41;;;;;;;0.82;0.50;;;21.90;93.30;;;;;;5035739;28;20037;-82
2022/09/08 11:39:39;;;;;;;1.77;0.90;;;21.80;93.30;;;;;;5033226;28;20127;-83
2022/09/08 11:42:31;;;;;;;2.15;0.70;;;21.60;94.60;;;;;;5021105;28;20371;-83
2022/09/08 11:45:24;;;;;;;1.45;0.43;;;22.00;94.30;;;;;;5029684;28;20398;-83
2022/09/08 11:47:58;;;;;;;1.50;0.50;;;22.30;91.80;;;;;;5032958;28;20041;-83
2022/09/08 11:50:53;;;;;;;1.17;0.57;;;22.50;91.50;;;;;;5035931;28;20053;-84
2022/09/08 11:53:46;;;;;;;1.35;0.40;;;22.40;89.80;;;;;;5034334;28;20040;-82
2022/09/08 11:56:44;;;;;;;2.00;0.63;;;22.20;88.90;;;;;;5002689;28;20045;-83
2022/09/08 11:59:22;;;;;;;1.10;0.50;;;22.30;89.90;;;;;;5016481;28;20039;-82
2022/09/08 12:02:09;;;;;;;1.45;0.60;;;22.50;88.90;;;;;;5034559;28;20041;-83
2022/09/08 12:04:57;;;;;;;3.67;0.73;;;22.60;85.20;;;;;;5015402;28;20037;-83
2022/09/08 12:07:48;;;;;;;1.27;0.60;;;22.70;85.90;;;;;;5033619;28;20046;-83
2022/09/08 12:10:50;;;;;;;1.15;0.50;;;22.60;85.20;;;;;;5035318;28;20040;-82
2022/09/08 12:13:32;;;;;;;0.93;0.50;;;22.20;85.10;;;;;;5034021;28;20029;-83
2022/09/08 12:16:25;;;;;;;1.25;0.70;;;21.70;89.30;;;;;;5033691;28;20049;-83
2022/09/08 12:19:36;;;;;;;2.47;0.73;;;22.00;88.20;;;;;;5034770;28;20037;-82
2022/09/08 12:22:40;;;;;;;3.30;0.68;;;22.30;89.60;;;;;;4986401;28;20407;-83
2022/09/08 12:25:51;;;;;;;1.63;0.80;;;22.90;86.50;;;;;;5036503;28;20053;-84
2022/09/08 12:28:49;;;;;;;2.10;0.70;;;23.10;80.00;;;;;;5034627;28;20479;-83
2022/09/08 12:32:00;;;;;;;1.38;0.65;;;22.70;80.60;;;;;;4947924;28;20133;-83
2022/09/08 12:34:38;;;;;;;1.98;0.50;;;22.90;80.60;;;;;;4972735;28;20042;-83
2022/09/08 12:37:18;;;;;;;1.27;0.63;;;23.20;78.30;;;;;;5029038;28;20037;-83
2022/09/08 12:40:03;;;;;;;1.95;0.60;;;23.00;81.30;;;;;;5033320;28;20048;-84
2022/09/08 12:42:56;;;;;;;2.28;0.50;;;23.00;80.80;;;;;;5034246;28;20386;-83
2022/09/08 12:45:32;;;;;;;2.08;0.68;;;22.80;79.10;;;;;;5035121;28;20030;-83
2022/09/08 12:48:27;;;;;;;2.65;0.98;;;22.40;81.20;;;;;;5013979;28;20057;-82
2022/09/08 12:51:18;;;;;;;1.85;1.00;;;22.30;84.20;;;;;;5032287;28;20346;-83
2022/09/08 12:53:54;;;;;;;1.55;0.40;;;22.40;83.20;;;;;;5032813;28;20038;-83
2022/09/08 12:56:38;;;;;;;2.55;0.55;;;22.40;85.70;;;;;;5032614;28;20048;-84
2022/09/08 12:59:52;;;;;;;1.27;0.38;;;22.50;83.40;;;;;;5032660;28;20056;-83
2022/09/08 13:02:49;;;;;;;1.23;0.60;;;23.10;83.70;;;;;;4953556;29;20054;-83
2022/09/08 13:05:18;;;;;;;2.53;0.50;;;23.40;79.00;;;;;;5029759;28;20118;-83
2022/09/08 13:08:22;;;;;;;3.53;0.47;;;23.40;79.50;;;;;;5033391;28;20033;-85
2022/09/08 13:10:52;;;;;;;1.23;0.60;;;23.30;78.20;;;;;;5032014;28;20053;-86
2022/09/08 13:13:31;;;;;;;2.80;0.52;;;23.10;77.50;;;;;;5033004;28;20391;-85
2022/09/08 13:16:06;;;;;;;4.40;0.88;;;22.90;76.70;;;;;;5033737;28;20039;-84
2022/09/08 13:18:41;;;;;;;1.88;0.57;;;22.50;79.60;;;;;;5037462;28;20037;-83
2022/09/08 13:21:20;;;;;;;3.17;0.60;;;22.20;79.30;;;;;;5038447;28;20033;-84
2022/09/08 13:24:00;;;;;;;2.55;0.38;;;22.10;79.30;;;;;;5032382;28;20459;-84
2022/09/08 13:27:04;;;;;;;3.50;0.65;;;22.20;78.70;;;;;;5032860;28;20048;-83
2022/09/08 13:29:50;;;;;;;3.90;0.68;;;22.30;80.10;;;;;;5033598;28;20041;-84
2022/09/08 13:32:55;;;;;;;1.52;0.45;;;22.70;79.70;;;;;;5033986;28;20095;-83
2022/09/08 13:35:24;;;;;;;1.95;0.60;;;22.90;77.40;;;;;;5033588;28;20042;-83
2022/09/08 13:38:11;;;;;;;3.22;0.50;;;23.00;78.40;;;;;;5033963;28;20049;-85
2022/09/08 13:41:02;;;;;;;2.05;0.63;;;23.00;77.60;;;;;;5022207;28;20042;-83
2022/09/08 13:43:47;;;;;;;1.42;0.50;;;22.80;78.60;;;;;;5038305;28;20029;-84
2022/09/08 13:46:16;;;;;;;2.88;0.60;;;22.90;79.10;;;;;;5034027;28;20038;-84
2022/09/08 13:49:22;;;;;;;1.80;0.60;;;22.80;80.00;;;;;;5033082;28;20033;-84
2022/09/08 13:52:10;;;;;;;3.17;0.95;;;22.90;77.80;;;;;;5015451;28;20398;-83
2022/09/08 13:54:57;;;;;;;3.28;0.70;;;22.80;76.10;;;;;;5032188;28;20037;-82
2022/09/08 13:57:45;;;;;;;1.27;0.70;;;23.20;78.10;;;;;;5034023;28;20455;-84
2022/09/08 14:00:14;;;;;;;4.07;0.60;;;23.40;74.80;;;;;;5032312;28;20056;-83
2022/09/08 14:02:49;;;;;;;3.17;0.60;;;23.20;73.10;;;;;;5030141;28;20049;-83
2022/09/08 14:05:24;;;;;;;1.35;0.50;;;22.80;74.00;;;;;;5033478;28;20029;-84
2022/09/08 14:07:59;;;;;;;1.85;0.57;;;22.70;74.90;;;;;;5033433;28;20025;-83
2022/09/08 14:10:40;;;;;;;2.80;0.70;;;22.70;75.00;;;;;;5017778;28;20060;-83
2022/09/08 14:13:12;;;;;;;2.00;0.50;;;22.40;76.00;;;;;;5032059;28;20032;-84
2022/09/08 14:15:48;;;;;;;1.85;0.60;;;22.30;79.40;;;;;;5031232;28;20525;-83
2022/09/08 14:19:05;;;;;;;2.17;0.70;;;22.10;88.90;;;;;;5033741;28;20037;-84
2022/09/08 14:21:37;;;;;;;2.75;0.88;;;21.50;93.10;;;;;;5025900;28;20041;-84
2022/09/08 14:24:29;;;;;;;2.38;0.60;;;20.90;94.60;;;;;;5030561;28;20029;-85
2022/09/08 14:26:55;;;;;;;1.23;0.40;;;20.60;97.60;;;;;;5032408;28;20044;-82
2022/09/08 14:29:33;;;;;;;1.33;0.47;;;19.90;99.90;;;;;;5032860;28;20037;-83
2022/09/08 14:32:27;;;;;;;1.98;0.57;;;18.90;99.90;;;;;;5034071;28;20040;-84
2022/09/08 14:35:16;;;;;;;2.78;0.82;;;18.60;99.90;;;;;;5040509;28;20033;-86
2022/09/08 14:37:56;;;;;;;0.20;0.20;;;18.90;99.90;;;;;;5036333;28;20040;-87
2022/09/08 14:40:25;;;;;;;1.50;0.40;;;19.30;99.90;;;;;;5033952;28;20037;-87
2022/09/08 14:43:02;;;;;;;1.58;0.30;;;19.80;99.90;;;;;;5014037;28;20044;-87
2022/09/08 14:45:51;;;;;;;3.00;0.50;;;20.20;99.90;;;;;;5032380;28;20501;-88